createdAt,value
2023-04-03T00:00:40.075Z,100.00
2023-04-03T00:03:06.931Z,100.00
2023-04-03T00:05:34.191Z,100.00
2023-04-03T00:08:02.908Z,100.00
2023-04-03T00:10:30.019Z,100.00
2023-04-03T00:12:57.049Z,100.00
2023-04-03T00:15:23.906Z,100.00
2023-04-03T00:17:50.780Z,100.00
2023-04-03T00:20:17.783Z,100.00
2023-04-03T00:22:44.543Z,100.00
2023-04-03T00:25:11.400Z,100.00
2023-04-03T00:27:41.967Z,100.00
2023-04-03T00:30:12.480Z,100.00
2023-04-03T00:32:39.387Z,100.00
2023-04-03T00:35:06.655Z,100.00
2023-04-03T00:37:33.750Z,100.00
2023-04-03T00:40:01.645Z,100.00
2023-04-03T00:42:28.452Z,100.00
2023-04-03T00:45:26.791Z,100.00
2023-04-03T00:47:54.185Z,100.00
2023-04-03T00:50:21.146Z,100.00
2023-04-03T00:52:50.120Z,100.00
2023-04-03T00:55:17.504Z,100.00
2023-04-03T00:57:46.602Z,100.00
2023-04-03T01:00:17.514Z,100.00
2023-04-03T01:02:45.000Z,100.00
2023-04-03T01:05:16.882Z,100.00
2023-04-03T01:07:46.078Z,100.00
2023-04-03T01:10:16.540Z,100.00
2023-04-03T01:12:46.914Z,100.00
2023-04-03T01:15:22.153Z,100.00
2023-04-03T01:17:59.490Z,100.00
2023-04-03T01:20:33.144Z,100.00
2023-04-03T01:23:11.892Z,100.00
2023-04-03T01:25:49.754Z,100.00
2023-04-03T01:28:25.771Z,100.00
2023-04-03T01:31:01.831Z,100.00
2023-04-03T01:33:30.793Z,100.00
2023-04-03T01:35:57.637Z,100.00
2023-04-03T01:38:26.484Z,100.00
2023-04-03T01:40:53.387Z,100.00
2023-04-03T01:43:20.396Z,100.00
2023-04-03T01:45:47.759Z,100.00
2023-04-03T01:48:14.799Z,100.00
2023-04-03T01:50:41.695Z,100.00
2023-04-03T01:53:09.037Z,100.00
2023-04-03T01:55:35.897Z,100.00
2023-04-03T01:58:02.726Z,100.00
2023-04-03T02:00:29.555Z,100.00
2023-04-03T02:02:56.700Z,100.00
2023-04-03T02:05:24.392Z,100.00
2023-04-03T02:07:51.662Z,100.00
2023-04-03T02:10:18.523Z,100.00
2023-04-03T02:12:45.581Z,100.00
2023-04-03T02:15:12.481Z,100.00
2023-04-03T02:17:39.347Z,100.00
2023-04-03T02:20:06.827Z,100.00
2023-04-03T02:22:35.705Z,100.00
2023-04-03T02:25:02.526Z,100.00
2023-04-03T02:27:29.317Z,100.00
2023-04-03T02:29:56.096Z,100.00
2023-04-03T02:32:22.885Z,100.00
2023-04-03T02:34:49.897Z,100.00
2023-04-03T02:37:17.775Z,100.00
2023-04-03T02:39:46.572Z,100.00
2023-04-03T02:42:13.515Z,100.00
2023-04-03T02:44:40.435Z,100.00
2023-04-03T02:47:07.547Z,100.00
2023-04-03T02:49:34.449Z,100.00
2023-04-03T02:52:01.258Z,100.00
2023-04-03T02:54:31.686Z,100.00
2023-04-03T02:57:02.386Z,100.00
2023-04-03T02:59:29.371Z,100.00
2023-04-03T03:01:56.876Z,100.00
2023-04-03T03:04:23.954Z,100.00
2023-04-03T03:06:51.901Z,100.00
2023-04-03T03:09:18.825Z,100.00
2023-04-03T03:11:45.558Z,100.00
2023-04-03T03:14:12.696Z,100.00
2023-04-03T03:16:39.455Z,100.00
2023-04-03T03:19:07.704Z,100.00
2023-04-03T03:21:34.513Z,100.00
2023-04-03T03:24:02.380Z,100.00
2023-04-03T03:26:30.401Z,100.00
2023-04-03T03:28:57.491Z,100.00
2023-04-03T03:31:24.703Z,100.00
2023-04-03T03:33:51.523Z,100.00
2023-04-03T03:36:19.340Z,100.00
2023-04-03T03:38:46.357Z,100.00
2023-04-03T03:41:13.188Z,100.00
2023-04-03T03:43:42.110Z,100.00
2023-04-03T03:46:09.022Z,100.00
2023-04-03T03:48:36.268Z,100.00
2023-04-03T03:51:03.361Z,100.00
2023-04-03T03:53:35.002Z,100.00
2023-04-03T03:56:06.717Z,100.00
2023-04-03T03:58:36.043Z,100.00
2023-04-03T04:01:07.794Z,100.00
2023-04-03T04:03:40.592Z,100.00
2023-04-03T04:06:09.442Z,100.00
2023-04-03T04:08:36.511Z,100.00
2023-04-03T04:11:05.719Z,100.00
2023-04-03T04:13:33.074Z,100.00
2023-04-03T04:16:00.015Z,100.00
2023-04-03T04:18:27.000Z,100.00
2023-04-03T04:20:53.812Z,100.00
2023-04-03T04:23:21.642Z,100.00
2023-04-03T04:25:50.296Z,100.00
2023-04-03T04:28:18.239Z,100.00
2023-04-03T04:30:47.140Z,100.00
2023-04-03T04:33:16.083Z,100.00
2023-04-03T04:35:44.732Z,100.00
2023-04-03T04:38:12.180Z,100.00
2023-04-03T04:40:39.009Z,100.00
2023-04-03T04:43:07.151Z,100.00
2023-04-03T04:45:34.942Z,100.00
2023-04-03T04:48:02.223Z,100.00
2023-04-03T04:50:29.356Z,100.00
2023-04-03T04:52:56.377Z,100.00
2023-04-03T04:55:23.264Z,100.00
2023-04-03T04:57:51.185Z,100.00
2023-04-03T05:00:19.577Z,100.00
2023-04-03T05:02:46.418Z,100.00
2023-04-03T05:05:13.719Z,100.00
2023-04-03T05:07:41.432Z,100.00
2023-04-03T05:10:09.297Z,100.00
2023-04-03T05:12:36.830Z,100.00
2023-04-03T05:15:05.834Z,100.00
2023-04-03T05:17:33.593Z,100.00
2023-04-03T05:20:01.119Z,100.00
2023-04-03T05:22:29.013Z,100.00
2023-04-03T05:25:00.603Z,100.00
2023-04-03T05:27:29.458Z,100.00
2023-04-03T05:29:58.834Z,100.00
2023-04-03T05:32:27.287Z,100.00
2023-04-03T05:35:04.745Z,100.00
2023-04-03T05:37:31.892Z,100.00
2023-04-03T05:39:58.834Z,100.00
2023-04-03T05:42:25.934Z,100.00
2023-04-03T05:44:52.886Z,100.00
2023-04-03T05:47:20.250Z,100.00
2023-04-03T05:49:47.033Z,100.00
2023-04-03T05:52:28.116Z,100.00
2023-04-03T05:54:56.042Z,100.00
2023-04-03T05:57:26.737Z,100.00
2023-04-03T05:59:53.686Z,100.00
2023-04-03T06:02:23.769Z,100.00
2023-04-03T06:04:52.189Z,100.00
2023-04-03T06:07:29.029Z,100.00
2023-04-03T06:09:57.970Z,100.00
2023-04-03T06:15:15.828Z,100.00
2023-04-03T06:17:42.631Z,100.00
2023-04-03T06:20:10.621Z,100.00
2023-04-03T06:22:37.929Z,100.00
2023-04-03T06:25:05.923Z,100.00
2023-04-03T06:27:32.910Z,100.00
2023-04-03T06:29:59.735Z,100.00
2023-04-03T06:32:26.614Z,100.00
2023-04-03T06:34:54.404Z,100.00
2023-04-03T06:37:24.198Z,100.00
2023-04-03T06:39:51.374Z,100.00
2023-04-03T06:42:18.120Z,100.00
2023-04-03T06:45:08.913Z,100.00
2023-04-03T06:47:35.784Z,100.00
2023-04-03T06:50:02.463Z,100.00
2023-04-03T06:52:29.289Z,100.00
2023-04-03T06:54:58.729Z,100.00
2023-04-03T06:57:26.089Z,100.00
2023-04-03T06:59:53.078Z,100.00
2023-04-03T07:02:19.842Z,100.00
2023-04-03T07:04:46.776Z,100.00
2023-04-03T07:07:13.762Z,100.00
2023-04-03T07:09:41.273Z,100.00
2023-04-03T07:12:08.964Z,100.00
2023-04-03T07:14:35.949Z,100.00
2023-04-03T07:17:02.775Z,100.00
2023-04-03T07:19:29.665Z,100.00
2023-04-03T07:21:56.611Z,100.00
2023-04-03T07:24:23.394Z,100.00
2023-04-03T07:26:51.449Z,100.00
2023-04-03T07:29:18.401Z,100.00
2023-04-03T07:31:45.837Z,100.00
2023-04-03T07:34:12.751Z,100.00
2023-04-03T07:36:39.540Z,100.00
2023-04-03T07:39:07.964Z,100.00
2023-04-03T07:41:35.293Z,100.00
2023-04-03T07:44:02.314Z,100.00
2023-04-03T07:46:29.338Z,100.00
2023-04-03T07:48:57.393Z,100.00
2023-04-03T07:51:25.776Z,100.00
2023-04-03T07:53:52.561Z,100.00
2023-04-03T07:56:19.386Z,100.00
2023-04-03T07:58:46.477Z,100.00
2023-04-03T08:01:13.543Z,100.00
2023-04-03T08:03:40.982Z,100.00
2023-04-03T08:06:11.972Z,100.00
2023-04-03T08:08:42.691Z,100.00
2023-04-03T08:11:11.523Z,100.00
2023-04-03T08:13:38.974Z,100.00
2023-04-03T08:16:11.228Z,100.00
2023-04-03T08:18:38.477Z,100.00
2023-04-03T08:21:10.520Z,100.00
2023-04-03T08:23:37.987Z,100.00
2023-04-03T08:26:13.338Z,100.00
2023-04-03T08:28:40.759Z,100.00
2023-04-03T08:31:12.142Z,100.00
2023-04-03T08:33:39.840Z,100.00
2023-04-03T08:36:08.871Z,100.00
2023-04-03T08:38:37.995Z,100.00
2023-04-03T08:41:41.015Z,100.00
2023-04-03T08:44:40.095Z,100.00
2023-04-03T08:47:09.806Z,100.00
2023-04-03T08:49:56.938Z,100.00
2023-04-03T08:52:29.778Z,100.00
2023-04-03T08:55:02.414Z,100.00
2023-04-03T08:57:36.856Z,100.00
2023-04-03T09:00:26.932Z,100.00
2023-04-03T09:02:54.899Z,100.00
2023-04-03T09:06:01.039Z,100.00
2023-04-03T09:09:01.243Z,100.00
2023-04-03T09:11:53.700Z,100.00
2023-04-03T09:14:33.192Z,100.00
2023-04-03T09:17:04.187Z,100.00
2023-04-03T09:19:45.096Z,100.00
2023-04-03T09:22:30.208Z,100.00
2023-04-03T09:25:14.680Z,100.00
2023-04-03T09:27:44.144Z,100.00
2023-04-03T09:30:20.606Z,100.00
2023-04-03T09:32:49.383Z,100.00
2023-04-03T09:35:23.394Z,100.00
2023-04-03T09:38:14.374Z,100.00
2023-04-03T09:40:46.937Z,100.00
2023-04-03T09:43:36.971Z,100.00
2023-04-03T09:46:32.940Z,100.00
2023-04-03T09:49:09.346Z,100.00
2023-04-03T09:51:37.834Z,100.00
2023-04-03T09:54:34.507Z,100.00
2023-04-03T09:57:08.391Z,100.00
2023-04-03T09:59:35.756Z,100.00
2023-04-03T10:02:25.746Z,100.00
2023-04-03T10:05:06.394Z,100.00
2023-04-03T10:07:38.306Z,100.00
2023-04-03T10:10:24.002Z,100.00
2023-04-03T10:13:05.388Z,100.00
2023-04-03T10:15:40.986Z,100.00
2023-04-03T10:18:30.991Z,100.00
2023-04-03T10:21:09.663Z,100.00
2023-04-03T10:23:50.213Z,100.00
2023-04-03T10:26:48.953Z,100.00
2023-04-03T10:29:49.563Z,100.00
2023-04-03T10:32:19.378Z,100.00
2023-04-03T10:34:58.473Z,100.00
2023-04-03T10:37:44.075Z,100.00
2023-04-03T10:40:34.399Z,100.00
2023-04-03T10:43:23.241Z,100.00
2023-04-03T10:46:17.816Z,100.00
2023-04-03T10:49:01.296Z,100.00
2023-04-03T10:51:44.313Z,84.45
2023-04-03T10:54:27.684Z,89.68
2023-04-03T10:57:13.542Z,76.57
2023-04-03T10:59:49.431Z,76.55
2023-04-03T11:02:20.369Z,86.72
2023-04-03T11:04:53.302Z,75.44
2023-04-03T11:07:34.183Z,69.74
2023-04-03T11:10:20.639Z,69.75
2023-04-03T11:12:53.211Z,70.67
2023-04-03T11:15:24.076Z,69.93
2023-04-03T11:18:03.880Z,70.93
2023-04-03T11:20:38.817Z,68.58
2023-04-03T11:23:18.302Z,73.45
2023-04-03T11:25:49.070Z,64.87
2023-04-03T11:28:15.953Z,67.18
2023-04-03T11:30:49.363Z,67.65
2023-04-03T11:33:38.461Z,66.47
2023-04-03T11:36:24.916Z,65.29
2023-04-03T11:39:01.497Z,69.54
2023-04-03T11:41:33.407Z,67.39
2023-04-03T11:44:00.230Z,64.37
2023-04-03T11:47:05.464Z,48.44
2023-04-03T11:50:31.260Z,49.58
2023-04-03T11:53:24.390Z,47.27
2023-04-03T11:55:51.190Z,49.41
2023-04-03T11:58:22.223Z,49.60
2023-04-03T12:00:56.143Z,50.20
2023-04-03T12:03:27.526Z,49.12
2023-04-03T12:05:55.875Z,48.83
2023-04-03T12:08:30.488Z,49.81
2023-04-03T12:11:09.793Z,49.47
2023-04-03T12:13:50.420Z,47.89
2023-04-03T12:16:30.712Z,48.76
2023-04-03T12:19:04.659Z,48.36
2023-04-03T12:21:37.671Z,47.06
2023-04-03T12:24:06.315Z,49.21
2023-04-03T12:27:02.870Z,49.27
2023-04-03T12:29:35.485Z,51.43
2023-04-03T12:32:37.426Z,50.42
2023-04-03T12:35:29.486Z,48.43
2023-04-03T12:38:38.436Z,46.95
2023-04-03T12:41:24.490Z,50.13
2023-04-03T12:44:06.307Z,46.54
2023-04-03T12:46:48.476Z,48.67
2023-04-03T12:49:21.218Z,47.75
2023-04-03T12:51:48.705Z,50.17
2023-04-03T12:54:18.263Z,49.83
2023-04-03T12:56:45.081Z,48.80
2023-04-03T12:59:27.239Z,47.13
2023-04-03T13:01:56.867Z,48.17
2023-04-03T13:04:24.410Z,47.82
2023-04-03T13:06:51.961Z,46.44
2023-04-03T13:09:33.556Z,45.80
2023-04-03T13:12:17.138Z,47.01
2023-04-03T13:14:57.194Z,45.77
2023-04-03T13:17:25.786Z,46.51
2023-04-03T13:19:53.549Z,47.50
2023-04-03T13:22:33.193Z,48.01
2023-04-03T13:25:05.812Z,47.36
2023-04-03T13:27:33.616Z,49.92
2023-04-03T13:30:03.284Z,47.88
2023-04-03T13:32:32.311Z,47.40
2023-04-03T13:35:08.204Z,48.59
2023-04-03T13:37:55.673Z,48.37
2023-04-03T13:40:22.799Z,49.21
2023-04-03T13:43:01.023Z,46.08
2023-04-03T13:45:30.546Z,46.45
2023-04-03T13:48:23.680Z,48.64
2023-04-03T13:51:04.675Z,48.26
2023-04-03T13:53:33.752Z,47.76
2023-04-03T13:56:17.272Z,48.29
2023-04-03T13:58:56.680Z,46.73
2023-04-03T14:01:25.127Z,49.58
2023-04-03T14:04:01.966Z,49.37
2023-04-03T14:06:30.950Z,48.21
2023-04-03T14:08:57.824Z,48.40
2023-04-03T14:11:29.574Z,46.94
2023-04-03T14:14:01.978Z,48.56
2023-04-03T14:16:32.319Z,47.05
2023-04-03T14:18:59.153Z,46.59
2023-04-03T14:21:25.897Z,48.17
2023-04-03T14:23:52.790Z,48.10
2023-04-03T14:26:26.202Z,50.10
2023-04-03T14:28:55.407Z,45.04
2023-04-03T14:31:25.271Z,47.60
2023-04-03T14:33:52.231Z,48.45
2023-04-03T14:36:21.320Z,46.77
2023-04-03T14:38:49.337Z,45.33
2023-04-03T14:41:18.259Z,47.90
2023-04-03T14:43:46.312Z,45.78
2023-04-03T14:46:18.597Z,48.17
2023-04-03T14:48:45.988Z,47.75
2023-04-03T14:51:13.595Z,46.23
2023-04-03T14:53:41.818Z,48.39
2023-04-03T14:56:27.906Z,47.71
2023-04-03T14:58:58.473Z,47.35
2023-04-03T15:01:26.018Z,47.69
2023-04-03T15:03:52.797Z,44.65
2023-04-03T15:06:20.313Z,48.34
2023-04-03T15:08:48.480Z,48.73
2023-04-03T15:11:16.168Z,48.54
2023-04-03T15:13:43.015Z,45.80
2023-04-03T15:16:19.602Z,47.35
2023-04-03T15:18:47.553Z,46.42
2023-04-03T15:21:14.505Z,46.94
2023-04-03T15:23:41.749Z,47.70
2023-04-03T15:26:08.653Z,47.45
2023-04-03T15:28:38.788Z,47.59
2023-04-03T15:31:05.843Z,46.60
2023-04-03T15:33:33.624Z,47.05
2023-04-03T15:36:07.231Z,45.26
2023-04-03T15:38:43.928Z,48.06
2023-04-03T15:41:10.574Z,48.94
2023-04-03T15:43:37.280Z,49.41
2023-04-03T15:46:05.029Z,47.14
2023-04-03T15:48:32.136Z,49.11
2023-04-03T15:50:59.354Z,47.50
2023-04-03T15:53:26.340Z,47.49
2023-04-03T15:55:53.028Z,46.46
2023-04-03T15:58:19.843Z,47.94
2023-04-03T16:00:46.779Z,49.98
2023-04-03T16:03:18.053Z,47.54
2023-04-03T16:05:45.333Z,49.42
2023-04-03T16:08:12.874Z,46.05
2023-04-03T16:10:40.771Z,48.65
2023-04-03T16:13:07.922Z,48.40
2023-04-03T16:15:36.219Z,47.50
2023-04-03T16:18:04.092Z,46.79
2023-04-03T16:20:31.739Z,49.37
2023-04-03T16:23:01.361Z,47.51
2023-04-03T16:25:28.350Z,46.68
2023-04-03T16:27:55.555Z,46.46
2023-04-03T16:30:22.284Z,47.82
2023-04-03T16:32:49.232Z,49.14
2023-04-03T16:35:16.075Z,46.91
2023-04-03T16:37:42.755Z,48.79
2023-04-03T16:40:10.918Z,47.15
2023-04-03T16:42:38.258Z,48.64
2023-04-03T16:45:06.911Z,45.06
2023-04-03T16:47:34.110Z,47.17
2023-04-03T16:50:01.231Z,48.34
2023-04-03T16:52:28.182Z,49.61
2023-04-03T16:54:56.578Z,48.88
2023-04-03T16:57:25.940Z,48.25
2023-04-03T16:59:53.928Z,47.02
2023-04-03T17:02:22.197Z,48.94
2023-04-03T17:04:50.802Z,48.30
2023-04-03T17:07:20.405Z,47.59
2023-04-03T17:09:47.564Z,47.34
2023-04-03T17:12:14.433Z,50.47
2023-04-03T17:14:41.327Z,50.79
2023-04-03T17:17:08.934Z,50.86
2023-04-03T17:19:37.960Z,51.72
2023-04-03T17:22:04.976Z,48.54
2023-04-03T17:24:31.742Z,50.57
2023-04-03T17:26:58.442Z,50.03
2023-04-03T17:29:25.136Z,48.73
2023-04-03T17:31:52.039Z,49.02
2023-04-03T17:34:18.922Z,48.63
2023-04-03T17:36:46.323Z,50.16
2023-04-03T17:39:13.353Z,50.35
2023-04-03T17:41:41.243Z,49.53
2023-04-03T17:44:07.956Z,50.45
2023-04-03T17:46:35.457Z,50.76
2023-04-03T17:49:03.390Z,52.34
2023-04-03T17:51:30.458Z,51.58
2023-04-03T17:53:57.250Z,48.39
2023-04-03T17:56:27.067Z,50.57
2023-04-03T17:58:56.583Z,50.04
2023-04-03T18:01:29.507Z,50.20
2023-04-03T18:03:58.701Z,50.26
2023-04-03T18:06:36.881Z,49.52
2023-04-03T18:09:07.794Z,48.47
2023-04-03T18:11:34.989Z,49.27
2023-04-03T18:14:03.622Z,50.86
2023-04-03T18:16:31.158Z,48.46
2023-04-03T18:19:17.643Z,47.76
2023-04-03T18:21:48.368Z,51.62
2023-04-03T18:24:16.635Z,50.48
2023-04-03T18:26:46.603Z,51.16
2023-04-03T18:29:13.347Z,49.86
2023-04-03T18:31:44.360Z,51.48
2023-04-03T18:34:12.063Z,49.53
2023-04-03T18:36:38.831Z,49.76
2023-04-03T18:39:05.745Z,50.91
2023-04-03T18:41:35.456Z,49.49
2023-04-03T18:44:04.461Z,49.70
2023-04-03T18:46:32.653Z,49.91
2023-04-03T18:48:59.921Z,50.94
2023-04-03T18:51:27.128Z,52.28
2023-04-03T18:53:53.970Z,50.18
2023-04-03T18:56:22.119Z,50.07
2023-04-03T18:58:48.935Z,51.45
2023-04-03T19:01:16.030Z,51.25
2023-04-03T19:03:43.035Z,51.08
2023-04-03T19:06:09.958Z,49.40
2023-04-03T19:08:36.913Z,51.84
2023-04-03T19:11:03.862Z,50.42
2023-04-03T19:13:30.734Z,50.84
2023-04-03T19:15:58.961Z,48.39
2023-04-03T19:18:27.297Z,51.01
2023-04-03T19:20:59.093Z,50.94
2023-04-03T19:23:26.536Z,48.71
2023-04-03T19:26:06.111Z,50.44
2023-04-03T19:28:33.157Z,50.82
2023-04-03T19:31:01.221Z,51.99
2023-04-03T19:33:28.938Z,51.34
2023-04-03T19:35:55.729Z,51.03
2023-04-03T19:38:22.613Z,51.88
2023-04-03T19:40:49.479Z,51.79
2023-04-03T19:43:17.286Z,50.10
2023-04-03T19:45:46.599Z,51.08
2023-04-03T19:48:13.712Z,52.88
2023-04-03T19:50:41.143Z,51.28
2023-04-03T19:53:09.371Z,52.25
2023-04-03T19:55:36.522Z,51.46
2023-04-03T19:58:04.424Z,50.93
2023-04-03T20:00:31.980Z,51.51
2023-04-03T20:02:58.819Z,53.71
2023-04-03T20:05:26.092Z,52.83
2023-04-03T20:07:52.817Z,51.69
2023-04-03T20:10:20.703Z,52.44
2023-04-03T20:12:50.208Z,52.86
2023-04-03T20:15:17.775Z,54.40
2023-04-03T20:17:44.951Z,52.19
2023-04-03T20:20:11.895Z,51.75
2023-04-03T20:22:39.934Z,51.96
2023-04-03T20:25:09.596Z,52.15
2023-04-03T20:27:36.533Z,52.85
2023-04-03T20:30:04.868Z,53.81
2023-04-03T20:32:31.959Z,53.23
2023-04-03T20:35:04.387Z,50.96
2023-04-03T20:37:32.670Z,53.05
2023-04-03T20:39:59.487Z,53.06
2023-04-03T20:42:26.388Z,51.96
2023-04-03T20:44:53.167Z,54.74
2023-04-03T20:47:20.230Z,55.12
2023-04-03T20:49:46.990Z,54.67
2023-04-03T20:52:13.780Z,52.15
2023-04-03T20:54:41.301Z,53.21
2023-04-03T20:57:08.113Z,55.70
2023-04-03T20:59:35.128Z,53.21
2023-04-03T21:02:01.916Z,53.87
2023-04-03T21:04:36.740Z,52.44
2023-04-03T21:07:41.316Z,53.31
2023-04-03T21:10:46.726Z,54.26
2023-04-03T21:13:51.118Z,52.29
2023-04-03T21:16:18.674Z,52.56
2023-04-03T21:18:59.398Z,53.52
2023-04-03T21:21:26.864Z,52.74
2023-04-03T21:23:55.063Z,54.19
2023-04-03T21:26:23.224Z,51.51
2023-04-03T21:28:51.205Z,50.64
2023-04-03T21:31:18.361Z,52.11
2023-04-03T21:33:45.272Z,50.01
2023-04-03T21:36:12.009Z,50.58
2023-04-03T21:38:38.928Z,50.82
2023-04-03T21:41:05.840Z,52.27
2023-04-03T21:43:33.285Z,52.91
2023-04-03T21:46:00.372Z,52.76
2023-04-03T21:48:30.947Z,52.17
2023-04-03T21:51:07.758Z,53.58
2023-04-03T21:53:35.573Z,53.56
2023-04-03T21:56:02.821Z,51.84
2023-04-03T21:58:33.319Z,53.86
2023-04-03T22:01:11.160Z,51.96
2023-04-03T22:03:38.902Z,52.84
2023-04-03T22:06:05.722Z,53.08
2023-04-03T22:08:32.523Z,54.76
2023-04-03T22:11:04.239Z,50.87
2023-04-03T22:13:31.375Z,50.39
2023-04-03T22:15:59.515Z,52.08
2023-04-03T22:18:27.236Z,52.14
2023-04-03T22:20:54.989Z,51.40
2023-04-03T22:23:22.446Z,53.79
2023-04-03T22:26:08.813Z,53.58
2023-04-03T22:28:38.765Z,53.75
2023-04-03T22:31:10.087Z,54.49
2023-04-03T22:33:37.707Z,52.97
2023-04-03T22:36:06.027Z,54.78
2023-04-03T22:38:33.129Z,52.20
2023-04-03T22:41:01.435Z,52.08
2023-04-03T22:43:29.209Z,53.29
2023-04-03T22:45:56.612Z,51.64
2023-04-03T22:48:27.110Z,51.68
2023-04-03T22:50:55.496Z,51.83
2023-04-03T22:53:22.668Z,52.25
2023-04-03T22:55:56.055Z,53.32
2023-04-03T22:58:25.929Z,52.31
2023-04-03T23:00:54.361Z,52.35
2023-04-03T23:03:23.331Z,52.74
2023-04-03T23:05:51.707Z,53.06
2023-04-03T23:08:19.581Z,52.42
2023-04-03T23:10:47.096Z,53.34
2023-04-03T23:13:13.826Z,56.24
2023-04-03T23:15:40.825Z,53.80
2023-04-03T23:18:07.918Z,53.12
2023-04-03T23:20:34.787Z,53.95
2023-04-03T23:23:01.499Z,53.92
2023-04-03T23:25:28.211Z,52.74
2023-04-03T23:27:55.060Z,53.79
2023-04-03T23:30:21.855Z,54.53
2023-04-03T23:32:48.814Z,52.51
2023-04-03T23:35:15.737Z,54.32
2023-04-03T23:37:42.761Z,52.39
2023-04-03T23:40:10.216Z,53.80
2023-04-03T23:42:36.931Z,54.06
2023-04-03T23:45:03.803Z,53.34
2023-04-03T23:47:30.534Z,52.74
2023-04-03T23:49:58.523Z,52.55
2023-04-03T23:52:25.266Z,52.34
2023-04-03T23:54:52.021Z,52.49
2023-04-03T23:57:18.685Z,52.43
2023-04-03T23:59:45.404Z,51.32
